createdAt,value
2019-03-30T00:03:56.490Z,9.93
2019-03-30T00:08:03.875Z,10.17
2019-03-30T00:12:09.606Z,9.77
2019-03-30T00:16:15.297Z,10.50
2019-03-30T00:20:32.164Z,8.80
2019-03-30T00:24:38.026Z,12.40
2019-03-30T00:28:43.760Z,11.57
2019-03-30T00:33:08.259Z,10.80
2019-03-30T00:37:14.085Z,11.23
2019-03-30T00:41:19.824Z,11.10
2019-03-30T00:45:37.529Z,10.70
2019-03-30T00:49:52.118Z,10.90
2019-03-30T00:58:15.144Z,10.57
2019-03-30T01:02:22.997Z,10.27
2019-03-30T01:06:28.751Z,10.23
2019-03-30T01:10:34.514Z,10.27
2019-03-30T01:14:52.929Z,9.80
2019-03-30T01:18:58.709Z,10.10
2019-03-30T01:23:18.147Z,9.73
2019-03-30T01:27:23.835Z,10.80
2019-03-30T01:31:34.244Z,10.37
2019-03-30T01:35:41.953Z,11.73
2019-03-30T01:39:47.737Z,10.17
2019-03-30T01:43:54.365Z,10.07
2019-03-30T01:48:11.992Z,9.33
2019-03-30T01:52:18.443Z,9.43
2019-03-30T02:01:01.307Z,9.60
2019-03-30T02:05:09.451Z,9.13
2019-03-30T02:09:15.212Z,9.83
2019-03-30T02:13:21.145Z,9.30
2019-03-30T02:17:50.869Z,9.23
2019-03-30T02:22:10.837Z,9.63
2019-03-30T02:31:00.002Z,9.80
2019-03-30T02:35:08.859Z,10.27
2019-03-30T02:39:14.652Z,9.17
2019-03-30T02:43:21.922Z,9.57
2019-03-30T02:47:27.657Z,9.33
2019-03-30T02:51:52.477Z,9.60
2019-03-30T02:56:00.377Z,9.20
2019-03-30T03:00:25.835Z,10.17
2019-03-30T03:04:31.548Z,9.33
2019-03-30T03:08:37.329Z,10.10
2019-03-30T03:12:43.551Z,9.67
2019-03-30T03:16:49.352Z,9.87
2019-03-30T03:21:07.225Z,9.43
2019-03-30T03:25:13.830Z,10.37
2019-03-30T03:29:19.600Z,9.60
2019-03-30T03:33:25.251Z,10.47
2019-03-30T03:37:44.742Z,10.63
2019-03-30T03:41:57.406Z,11.00
2019-03-30T03:46:14.430Z,10.97
2019-03-30T03:50:57.773Z,10.37
2019-03-30T04:00:20.620Z,9.87
2019-03-30T04:13:54.148Z,8.97
2019-03-30T04:17:59.872Z,10.97
2019-03-30T04:22:05.715Z,11.00
2019-03-30T04:26:11.506Z,11.20
2019-03-30T04:30:17.217Z,11.13
2019-03-30T04:34:22.928Z,11.20
2019-03-30T04:38:28.773Z,10.00
2019-03-30T04:42:34.459Z,9.93
2019-03-30T04:46:40.295Z,9.67
2019-03-30T04:50:45.975Z,9.95
2019-03-30T04:54:51.718Z,9.63
2019-03-30T04:58:57.506Z,10.10
2019-03-30T05:03:03.260Z,10.33
2019-03-30T05:07:09.036Z,10.70
2019-03-30T05:11:14.891Z,10.20
2019-03-30T05:15:20.566Z,10.80
2019-03-30T05:19:26.620Z,10.73
2019-03-30T05:23:32.288Z,10.67
2019-03-30T05:27:38.031Z,11.37
2019-03-30T05:31:43.770Z,10.97
2019-03-30T05:35:49.458Z,12.10
2019-03-30T05:39:55.323Z,10.13
2019-03-30T05:44:01.015Z,11.37
2019-03-30T05:48:06.754Z,11.67
2019-03-30T05:52:25.928Z,10.83
2019-03-30T05:56:25.632Z,10.87
2019-03-30T06:00:31.360Z,9.70
2019-03-30T06:04:37.226Z,10.03
2019-03-30T06:08:42.964Z,10.37
2019-03-30T06:12:48.664Z,10.10
2019-03-30T06:16:54.689Z,10.00
2019-03-30T06:21:00.350Z,10.03
2019-03-30T06:25:06.086Z,9.83
2019-03-30T06:33:36.386Z,9.00
2019-03-30T06:37:53.681Z,9.10
2019-03-30T06:41:59.384Z,9.20
2019-03-30T06:46:05.120Z,9.90
2019-03-30T06:50:11.266Z,9.77
2019-03-30T06:54:17.231Z,9.57
2019-03-30T06:58:23.023Z,9.93
2019-03-30T07:07:05.988Z,10.67
2019-03-30T07:11:50.857Z,9.80
2019-03-30T07:20:33.954Z,9.67
2019-03-30T07:24:39.712Z,9.80
2019-03-30T07:28:47.156Z,8.67
2019-03-30T07:32:57.929Z,9.00
2019-03-30T07:37:03.718Z,9.10
2019-03-30T07:41:09.354Z,9.27
2019-03-30T07:45:26.500Z,8.90
2019-03-30T07:49:53.714Z,9.47
2019-03-30T07:53:59.465Z,9.13
2019-03-30T07:58:24.011Z,8.67
2019-03-30T08:02:29.762Z,9.50
2019-03-30T08:06:35.491Z,8.80
2019-03-30T08:10:42.548Z,8.63
2019-03-30T08:14:48.242Z,8.60
2019-03-30T08:18:54.137Z,8.67
2019-03-30T08:22:59.958Z,8.60
2019-03-30T08:27:05.826Z,9.20
2019-03-30T08:31:11.887Z,8.77
2019-03-30T08:35:20.250Z,9.27
2019-03-30T08:39:26.360Z,9.07
2019-03-30T08:43:32.263Z,8.67
2019-03-30T08:47:40.371Z,8.37
2019-03-30T08:51:46.595Z,9.17
2019-03-30T08:55:52.597Z,7.97
2019-03-30T08:59:58.444Z,8.17
2019-03-30T09:04:04.433Z,8.40
2019-03-30T09:08:10.493Z,8.50
2019-03-30T09:12:16.299Z,8.30
2019-03-30T09:16:34.722Z,8.05
2019-03-30T09:20:40.525Z,7.40
2019-03-30T09:24:47.943Z,6.93
2019-03-30T09:28:54.066Z,7.10
2019-03-30T09:37:32.257Z,7.22
2019-03-30T09:41:38.161Z,6.58
2019-03-30T09:45:44.140Z,6.33
2019-03-30T09:49:50.284Z,6.13
2019-03-30T09:53:56.250Z,5.92
2019-03-30T09:58:02.648Z,5.53
2019-03-30T10:02:08.546Z,5.90
2019-03-30T10:06:14.409Z,5.85
2019-03-30T10:10:20.110Z,5.65
2019-03-30T10:14:25.805Z,6.15
2019-03-30T10:18:31.540Z,6.33
2019-03-30T10:22:37.531Z,5.72
2019-03-30T10:26:43.228Z,5.85
2019-03-30T10:30:48.968Z,6.50
2019-03-30T10:34:54.694Z,6.15
2019-03-30T10:39:00.339Z,5.78
2019-03-30T10:43:07.672Z,5.60
2019-03-30T10:47:13.523Z,6.35
2019-03-30T10:51:19.514Z,6.35
2019-03-30T10:55:25.456Z,6.47
2019-03-30T10:59:31.267Z,6.40
2019-03-30T11:03:37.028Z,6.12
2019-03-30T11:07:42.776Z,6.42
2019-03-30T11:16:20.221Z,6.10
2019-03-30T11:20:27.692Z,6.67
2019-03-30T11:24:33.917Z,7.12
2019-03-30T11:28:59.217Z,6.53
2019-03-30T11:33:06.078Z,6.70
2019-03-30T11:37:12.527Z,6.58
2019-03-30T11:41:18.334Z,7.42
2019-03-30T11:45:24.265Z,6.75
2019-03-30T11:49:31.522Z,7.17
2019-03-30T11:53:38.578Z,7.83
2019-03-30T11:57:48.622Z,7.75
2019-03-30T12:01:54.406Z,6.92
2019-03-30T12:06:00.138Z,8.38
2019-03-30T12:10:07.394Z,9.43
2019-03-30T12:14:13.121Z,8.58
2019-03-30T12:18:19.493Z,7.92
2019-03-30T12:27:32.326Z,7.60
2019-03-30T12:31:38.136Z,7.92
2019-03-30T12:35:43.916Z,8.68
2019-03-30T12:39:49.780Z,8.23
2019-03-30T12:43:55.590Z,8.30
2019-03-30T12:48:04.655Z,9.60
2019-03-30T12:52:29.342Z,9.18
2019-03-30T12:56:35.086Z,8.38
2019-03-30T13:00:40.875Z,9.18
2019-03-30T13:04:46.594Z,8.48
2019-03-30T13:08:52.290Z,8.13
2019-03-30T13:12:58.020Z,8.20
2019-03-30T13:17:03.776Z,8.50
2019-03-30T13:21:09.546Z,8.73
2019-03-30T13:25:15.325Z,8.18
2019-03-30T13:29:21.138Z,9.45
2019-03-30T13:38:20.652Z,8.43
2019-03-30T13:42:30.951Z,8.65
2019-03-30T13:46:36.635Z,8.70
2019-03-30T13:50:44.112Z,7.53
2019-03-30T13:54:49.954Z,8.43
2019-03-30T13:58:57.105Z,8.10
2019-03-30T14:03:03.007Z,7.58
2019-03-30T14:07:09.001Z,7.40
2019-03-30T14:11:14.688Z,7.37
2019-03-30T14:15:19.059Z,7.65
2019-03-30T14:19:24.714Z,7.55
2019-03-30T14:23:30.723Z,6.65
2019-03-30T14:27:36.440Z,6.55
2019-03-30T14:31:42.164Z,7.72
2019-03-30T14:35:48.020Z,7.17
2019-03-30T14:39:53.729Z,7.60
2019-03-30T14:44:18.675Z,7.58
2019-03-30T14:48:24.402Z,7.45
2019-03-30T14:52:30.095Z,6.83
2019-03-30T14:56:45.359Z,6.90
2019-03-30T15:01:03.317Z,6.85
2019-03-30T15:05:54.408Z,7.85
2019-03-30T15:10:00.407Z,7.50
2019-03-30T15:14:06.341Z,7.28
2019-03-30T15:18:12.103Z,7.42
2019-03-30T15:22:18.166Z,7.70
2019-03-30T15:26:23.876Z,7.72
2019-03-30T15:30:29.655Z,7.80
2019-03-30T15:34:35.458Z,7.80
2019-03-30T15:38:41.165Z,7.85
2019-03-30T15:42:46.938Z,7.72
2019-03-30T15:46:52.652Z,7.40
2019-03-30T15:55:16.798Z,8.18
2019-03-30T15:59:22.483Z,7.80
2019-03-30T16:03:28.205Z,7.75
2019-03-30T16:07:33.904Z,7.50
2019-03-30T16:11:40.070Z,8.10
2019-03-30T16:15:45.781Z,8.50
2019-03-30T16:19:54.310Z,8.03
2019-03-30T16:24:00.027Z,8.75
2019-03-30T16:28:05.698Z,8.43
2019-03-30T16:32:11.370Z,7.83
2019-03-30T16:36:17.091Z,7.90
2019-03-30T16:40:22.860Z,7.83
2019-03-30T16:44:28.529Z,8.98
2019-03-30T16:48:34.240Z,8.10
2019-03-30T16:52:41.107Z,10.55
2019-03-30T16:56:53.563Z,8.10
2019-03-30T17:00:59.369Z,10.55
2019-03-30T17:05:05.662Z,8.85
2019-03-30T17:09:12.948Z,9.25
2019-03-30T17:13:18.805Z,8.77
2019-03-30T17:17:24.578Z,11.88
2019-03-30T17:21:30.313Z,8.13
2019-03-30T17:25:36.058Z,10.05
2019-03-30T17:29:42.168Z,8.98
2019-03-30T17:33:48.329Z,9.78
2019-03-30T17:37:54.138Z,8.83
2019-03-30T17:42:00.002Z,9.53
2019-03-30T17:46:05.835Z,8.70
2019-03-30T17:50:32.242Z,8.10
2019-03-30T17:54:39.882Z,8.25
2019-03-30T17:58:55.061Z,8.40
2019-03-30T18:03:01.145Z,8.28
2019-03-30T18:07:13.783Z,8.33
2019-03-30T18:11:25.737Z,8.55
2019-03-30T18:15:34.501Z,8.90
2019-03-30T18:24:13.047Z,10.93
2019-03-30T18:28:26.960Z,11.10
2019-03-30T18:32:45.526Z,9.43
2019-03-30T18:37:02.465Z,8.03
2019-03-30T18:41:08.236Z,8.33
2019-03-30T18:49:51.968Z,8.78
2019-03-30T18:54:23.786Z,8.08
2019-03-30T18:58:40.938Z,7.58
2019-03-30T19:02:55.941Z,8.30
2019-03-30T19:07:01.722Z,8.50
2019-03-30T19:11:07.498Z,7.93
2019-03-30T19:15:13.160Z,7.07
2019-03-30T19:19:18.782Z,7.72
2019-03-30T19:23:24.439Z,9.15
2019-03-30T19:27:30.883Z,8.33
2019-03-30T19:31:36.713Z,7.90
2019-03-30T19:35:42.399Z,8.40
2019-03-30T19:39:48.099Z,9.50
2019-03-30T19:43:53.888Z,10.47
2019-03-30T19:47:59.690Z,10.10
2019-03-30T19:52:05.971Z,8.53
2019-03-30T19:56:12.040Z,8.20
2019-03-30T20:05:19.328Z,10.00
2019-03-30T20:09:25.018Z,9.10
2019-03-30T20:13:30.739Z,8.87
2019-03-30T20:17:36.520Z,9.10
2019-03-30T20:26:00.431Z,8.70
2019-03-30T20:30:18.715Z,10.23
2019-03-30T20:34:24.436Z,8.70
2019-03-30T20:38:30.937Z,8.90
2019-03-30T20:42:36.704Z,8.53
2019-03-30T20:46:43.798Z,8.10
2019-03-30T20:50:55.292Z,10.60
2019-03-30T20:55:01.044Z,9.50
2019-03-30T20:59:06.788Z,9.63
2019-03-30T21:03:12.928Z,9.83
2019-03-30T21:07:20.843Z,11.50
2019-03-30T21:11:26.559Z,24.03
2019-03-30T21:15:32.290Z,18.17
2019-03-30T21:19:38.123Z,15.97
2019-03-30T21:23:43.832Z,17.40
2019-03-30T21:27:49.540Z,15.50
2019-03-30T21:31:55.210Z,15.00
2019-03-30T21:36:00.981Z,15.50
2019-03-30T21:40:07.108Z,18.10
2019-03-30T21:44:22.059Z,16.20
2019-03-30T21:48:39.704Z,15.17
2019-03-30T21:52:45.515Z,13.47
2019-03-30T21:56:51.296Z,14.17
2019-03-30T22:00:59.848Z,13.10
2019-03-30T22:05:10.290Z,15.40
2019-03-30T22:09:16.067Z,14.50
2019-03-30T22:13:22.086Z,15.27
2019-03-30T22:17:28.131Z,15.87
2019-03-30T22:21:34.128Z,16.10
2019-03-30T22:25:39.896Z,16.00
2019-03-30T22:29:45.578Z,15.93
2019-03-30T22:33:51.279Z,18.50
2019-03-30T22:37:56.982Z,17.73
2019-03-30T22:42:02.639Z,63.73
2019-03-30T22:46:09.488Z,29.63
2019-03-30T22:50:15.207Z,18.37
2019-03-30T22:54:20.963Z,17.50
2019-03-30T22:58:26.667Z,22.33
2019-03-30T23:02:32.676Z,28.10
2019-03-30T23:06:38.362Z,25.73
2019-03-30T23:10:44.147Z,23.03
2019-03-30T23:14:49.847Z,21.43
2019-03-30T23:18:55.636Z,21.00
2019-03-30T23:23:01.391Z,19.30
2019-03-30T23:27:07.086Z,18.67
2019-03-30T23:31:12.928Z,19.27
2019-03-30T23:35:18.788Z,19.70
2019-03-30T23:39:24.646Z,18.20
2019-03-30T23:43:30.414Z,17.93
2019-03-30T23:47:36.079Z,18.20
2019-03-30T23:51:41.873Z,19.90
2019-03-30T23:55:47.686Z,19.23
2019-03-30T23:59:53.422Z,20.93
